createdAt,value
2022-12-19T00:01:35.393Z,45.95
2022-12-19T00:04:08.156Z,44.33
2022-12-19T00:06:37.348Z,42.70
2022-12-19T00:09:04.956Z,39.65
2022-12-19T00:11:32.859Z,42.92
2022-12-19T00:14:00.256Z,46.40
2022-12-19T00:16:29.444Z,43.53
2022-12-19T00:18:59.399Z,46.25
2022-12-19T00:21:28.418Z,39.80
2022-12-19T00:23:55.597Z,39.13
2022-12-19T00:26:25.198Z,44.70
2022-12-19T00:29:12.549Z,44.85
2022-12-19T00:31:41.213Z,39.90
2022-12-19T00:34:09.131Z,41.63
2022-12-19T00:36:36.155Z,41.03
2022-12-19T00:39:08.210Z,40.38
2022-12-19T00:41:41.595Z,40.22
2022-12-19T00:44:14.266Z,40.40
2022-12-19T00:46:41.832Z,38.72
2022-12-19T00:49:08.974Z,41.38
2022-12-19T00:51:37.583Z,41.25
2022-12-19T00:54:06.705Z,39.97
2022-12-19T00:56:37.249Z,39.90
2022-12-19T00:59:06.258Z,42.05
2022-12-19T01:01:36.311Z,43.53
2022-12-19T01:06:52.602Z,42.90
2022-12-19T01:09:21.781Z,45.38
2022-12-19T01:12:07.046Z,39.15
2022-12-19T01:14:33.896Z,41.85
2022-12-19T01:17:00.836Z,37.75
2022-12-19T01:19:27.921Z,31.58
2022-12-19T01:21:54.752Z,40.65
2022-12-19T01:24:21.819Z,33.42
2022-12-19T01:26:48.775Z,29.88
2022-12-19T01:29:15.588Z,35.10
2022-12-19T01:31:42.516Z,34.30
2022-12-19T01:34:09.500Z,35.38
2022-12-19T01:36:40.128Z,31.77
2022-12-19T01:39:07.898Z,37.78
2022-12-19T01:41:35.557Z,34.30
2022-12-19T01:44:07.293Z,35.42
2022-12-19T01:46:38.561Z,34.83
2022-12-19T01:49:12.653Z,41.63
2022-12-19T01:51:44.874Z,34.95
2022-12-19T01:54:17.585Z,36.58
2022-12-19T01:56:49.686Z,33.63
2022-12-19T01:59:31.872Z,34.85
2022-12-19T02:02:23.772Z,34.95
2022-12-19T02:04:50.733Z,34.08
2022-12-19T02:07:20.182Z,39.90
2022-12-19T02:09:51.905Z,35.70
2022-12-19T02:12:26.219Z,37.00
2022-12-19T02:14:59.131Z,33.55
2022-12-19T02:17:52.762Z,39.08
2022-12-19T02:20:34.646Z,44.80
2022-12-19T02:23:10.592Z,38.00
2022-12-19T02:26:24.793Z,40.50
2022-12-19T02:29:17.819Z,40.90
2022-12-19T02:31:57.303Z,36.80
2022-12-19T02:34:31.736Z,39.05
2022-12-19T02:37:17.143Z,39.08
2022-12-19T02:40:37.090Z,42.20
2022-12-19T02:43:06.573Z,37.17
2022-12-19T02:45:37.858Z,38.85
2022-12-19T02:48:08.992Z,43.15
2022-12-19T02:50:41.651Z,48.47
2022-12-19T02:53:11.067Z,36.15
2022-12-19T02:56:05.619Z,39.47
2022-12-19T02:59:03.470Z,36.55
2022-12-19T03:01:49.113Z,36.03
2022-12-19T03:04:39.664Z,39.42
2022-12-19T03:07:34.169Z,42.42
2022-12-19T03:10:03.710Z,36.35
2022-12-19T03:12:36.679Z,39.75
2022-12-19T03:15:04.894Z,44.25
2022-12-19T03:17:36.706Z,39.83
2022-12-19T03:20:28.525Z,36.03
2022-12-19T03:22:55.480Z,40.25
2022-12-19T03:25:24.278Z,37.92
2022-12-19T03:27:53.799Z,37.38
2022-12-19T03:30:20.776Z,41.63
2022-12-19T03:32:49.341Z,38.40
2022-12-19T03:35:25.072Z,41.83
2022-12-19T03:37:59.221Z,34.63
2022-12-19T03:40:27.274Z,48.35
2022-12-19T03:43:09.023Z,38.05
2022-12-19T03:45:52.928Z,39.38
2022-12-19T03:48:43.616Z,31.20
2022-12-19T03:51:19.277Z,36.38
2022-12-19T03:53:46.052Z,41.00
2022-12-19T03:56:16.832Z,37.38
2022-12-19T03:58:50.218Z,39.33
2022-12-19T04:01:17.367Z,39.33
2022-12-19T04:03:44.762Z,33.60
2022-12-19T04:06:13.368Z,32.00
2022-12-19T04:08:41.412Z,46.70
2022-12-19T04:11:15.829Z,24.02
2022-12-19T04:13:49.094Z,37.72
2022-12-19T04:16:15.902Z,43.17
2022-12-19T04:18:48.042Z,43.78
2022-12-19T04:21:25.295Z,40.15
2022-12-19T04:23:58.437Z,40.45
2022-12-19T04:26:26.542Z,37.30
2022-12-19T04:28:56.707Z,39.00
2022-12-19T04:31:24.293Z,41.42
2022-12-19T04:33:51.164Z,36.50
2022-12-19T04:36:18.166Z,34.03
2022-12-19T04:38:44.994Z,45.58
2022-12-19T04:41:12.535Z,35.97
2022-12-19T04:43:39.349Z,39.53
2022-12-19T04:46:06.626Z,40.80
2022-12-19T04:48:38.326Z,37.17
2022-12-19T04:51:05.389Z,40.30
2022-12-19T04:53:32.773Z,42.90
2022-12-19T04:56:04.486Z,37.25
2022-12-19T04:58:31.915Z,45.90
2022-12-19T05:01:07.344Z,42.50
2022-12-19T05:03:35.218Z,41.80
2022-12-19T05:06:13.428Z,40.50
2022-12-19T05:08:42.560Z,39.25
2022-12-19T05:11:15.812Z,43.35
2022-12-19T05:13:45.925Z,42.83
2022-12-19T05:16:13.273Z,46.72
2022-12-19T05:18:40.528Z,42.33
2022-12-19T05:21:08.145Z,42.22
2022-12-19T05:23:35.348Z,35.60
2022-12-19T05:26:04.109Z,40.47
2022-12-19T05:28:32.238Z,44.33
2022-12-19T05:31:04.416Z,39.55
2022-12-19T05:33:31.415Z,45.30
2022-12-19T05:35:58.263Z,41.95
2022-12-19T05:38:26.494Z,38.65
2022-12-19T05:40:53.603Z,38.95
2022-12-19T05:43:20.993Z,43.72
2022-12-19T05:45:47.859Z,38.40
2022-12-19T05:48:14.717Z,38.75
2022-12-19T05:50:41.591Z,40.95
2022-12-19T05:53:09.048Z,46.30
2022-12-19T05:55:35.883Z,39.05
2022-12-19T05:58:02.715Z,42.10
2022-12-19T06:00:29.558Z,41.10
2022-12-19T06:02:56.602Z,46.53
2022-12-19T06:05:23.633Z,41.45
2022-12-19T06:07:50.453Z,41.58
2022-12-19T06:10:17.332Z,42.85
2022-12-19T06:12:44.184Z,40.50
2022-12-19T06:15:11.978Z,46.90
2022-12-19T06:17:38.804Z,43.47
2022-12-19T06:20:06.796Z,35.47
2022-12-19T06:22:35.220Z,39.97
2022-12-19T06:25:02.142Z,42.50
2022-12-19T06:27:28.983Z,39.00
2022-12-19T06:29:55.964Z,38.83
2022-12-19T06:32:22.794Z,36.70
2022-12-19T06:35:03.935Z,38.75
2022-12-19T06:37:31.152Z,42.83
2022-12-19T06:39:57.957Z,36.30
2022-12-19T06:42:24.850Z,41.15
2022-12-19T06:44:54.161Z,39.42
2022-12-19T06:47:22.160Z,40.38
2022-12-19T06:49:49.221Z,37.35
2022-12-19T06:52:16.614Z,42.47
2022-12-19T06:54:43.442Z,46.25
2022-12-19T06:57:10.330Z,43.47
2022-12-19T06:59:37.175Z,39.63
2022-12-19T07:02:23.740Z,39.13
2022-12-19T07:05:02.707Z,44.35
2022-12-19T07:07:29.867Z,37.15
2022-12-19T07:09:56.678Z,52.13
2022-12-19T07:12:23.585Z,40.58
2022-12-19T07:14:53.593Z,43.03
2022-12-19T07:17:23.514Z,36.05
2022-12-19T07:19:50.864Z,42.20
2022-12-19T07:22:17.853Z,41.47
2022-12-19T07:24:44.734Z,46.58
2022-12-19T07:27:11.709Z,43.85
2022-12-19T07:29:38.530Z,34.35
2022-12-19T07:32:05.461Z,38.45
2022-12-19T07:34:32.313Z,40.83
2022-12-19T07:36:59.247Z,44.38
2022-12-19T07:39:26.061Z,45.85
2022-12-19T07:41:52.880Z,44.50
2022-12-19T07:44:19.744Z,43.90
2022-12-19T07:46:46.779Z,38.17
2022-12-19T07:49:17.113Z,43.97
2022-12-19T07:51:48.321Z,37.08
2022-12-19T07:54:15.161Z,40.28
2022-12-19T07:56:42.133Z,39.28
2022-12-19T07:59:09.303Z,48.53
2022-12-19T08:01:36.533Z,42.55
2022-12-19T08:04:03.814Z,39.03
2022-12-19T08:06:34.219Z,40.45
2022-12-19T08:09:04.700Z,43.80
2022-12-19T08:11:31.600Z,38.60
2022-12-19T08:13:58.683Z,36.45
2022-12-19T08:16:27.871Z,38.17
2022-12-19T08:18:55.892Z,41.05
2022-12-19T08:21:23.819Z,38.28
2022-12-19T08:23:52.013Z,41.17
2022-12-19T08:26:28.358Z,50.20
2022-12-19T08:28:58.550Z,45.60
2022-12-19T08:31:27.799Z,43.17
2022-12-19T08:33:56.828Z,38.45
2022-12-19T08:36:26.050Z,37.50
2022-12-19T08:38:53.972Z,37.35
2022-12-19T08:41:21.095Z,41.53
2022-12-19T08:43:53.226Z,41.63
2022-12-19T08:46:21.298Z,40.38
2022-12-19T08:48:48.212Z,36.22
2022-12-19T08:51:16.799Z,42.08
2022-12-19T08:53:45.178Z,35.20
2022-12-19T08:56:17.879Z,34.97
2022-12-19T08:58:45.451Z,49.45
2022-12-19T09:01:16.055Z,39.95
2022-12-19T09:03:52.710Z,34.03
2022-12-19T09:06:29.871Z,31.08
2022-12-19T09:09:00.237Z,37.28
2022-12-19T09:11:27.677Z,32.92
2022-12-19T09:13:57.198Z,32.97
2022-12-19T09:16:26.146Z,40.78
2022-12-19T09:18:55.372Z,38.88
2022-12-19T09:21:23.895Z,37.55
2022-12-19T09:23:54.552Z,33.70
2022-12-19T09:26:24.685Z,29.00
2022-12-19T09:28:58.462Z,33.22
2022-12-19T09:31:26.028Z,32.17
2022-12-19T09:33:53.630Z,36.10
2022-12-19T09:36:23.307Z,33.60
2022-12-19T09:38:51.163Z,33.25
2022-12-19T09:41:52.657Z,34.20
2022-12-19T09:44:25.367Z,30.50
2022-12-19T09:47:13.665Z,33.63
2022-12-19T09:49:45.687Z,36.55
2022-12-19T09:52:41.679Z,31.35
2022-12-19T09:55:25.921Z,36.33
2022-12-19T09:58:01.344Z,35.85
2022-12-19T10:00:59.742Z,34.03
2022-12-19T10:03:39.224Z,41.53
2022-12-19T10:07:16.303Z,33.45
2022-12-19T10:09:38.643Z,40.95
2022-12-19T10:12:44.837Z,35.72
2022-12-19T10:14:53.562Z,38.72
2022-12-19T10:17:37.990Z,35.25
2022-12-19T10:20:27.403Z,35.25
2022-12-19T10:23:12.796Z,34.38
2022-12-19T10:25:52.672Z,33.72
2022-12-19T10:28:34.860Z,32.90
2022-12-19T10:31:21.124Z,40.05
2022-12-19T10:34:04.929Z,38.67
2022-12-19T10:37:12.907Z,38.97
2022-12-19T10:39:42.280Z,31.75
2022-12-19T10:42:19.716Z,38.65
2022-12-19T10:44:49.315Z,40.47
2022-12-19T10:47:17.433Z,43.80
2022-12-19T10:49:44.275Z,34.70
2022-12-19T10:52:12.709Z,37.33
2022-12-19T10:54:43.590Z,40.83
2022-12-19T10:57:22.707Z,35.80
2022-12-19T11:00:05.735Z,28.17
2022-12-19T11:02:35.630Z,31.65
2022-12-19T11:05:21.320Z,30.05
2022-12-19T11:08:06.598Z,31.58
2022-12-19T11:12:17.307Z,29.17
2022-12-19T11:20:15.709Z,25.13
2022-12-19T11:24:02.171Z,27.35
2022-12-19T11:29:14.944Z,29.48
2022-12-19T11:29:31.809Z,27.52
2022-12-19T11:29:37.919Z,29.30
2022-12-19T11:30:40.970Z,27.00
2022-12-19T11:34:18.484Z,27.50
2022-12-19T11:36:50.162Z,27.20
2022-12-19T11:39:44.271Z,26.83
2022-12-19T11:42:29.572Z,27.77
2022-12-19T11:45:32.546Z,28.63
2022-12-19T11:48:07.054Z,31.45
2022-12-19T11:50:54.622Z,28.95
2022-12-19T11:53:33.693Z,27.60
2022-12-19T11:56:15.891Z,29.05
2022-12-19T11:58:59.638Z,31.27
2022-12-19T12:01:47.891Z,34.65
2022-12-19T12:04:48.769Z,38.05
2022-12-19T12:08:05.745Z,32.40
2022-12-19T12:15:18.975Z,29.25
2022-12-19T12:20:27.782Z,32.25
2022-12-19T12:28:25.572Z,31.40
2022-12-19T12:31:15.241Z,36.90
2022-12-19T12:31:46.810Z,32.92
2022-12-19T12:31:49.436Z,34.88
2022-12-19T12:31:50.632Z,30.23
2022-12-19T12:37:15.847Z,34.97
2022-12-19T12:38:22.610Z,34.88
2022-12-19T12:41:21.305Z,31.98
2022-12-19T12:44:32.440Z,34.10
2022-12-19T12:47:17.285Z,32.03
2022-12-19T12:49:48.955Z,35.33
2022-12-19T12:52:20.294Z,43.53
2022-12-19T12:54:48.680Z,32.17
2022-12-19T12:57:32.916Z,35.60
2022-12-19T13:00:22.733Z,30.10
2022-12-19T13:03:04.638Z,28.63
2022-12-19T13:05:46.777Z,27.92
2022-12-19T13:08:34.442Z,28.65
2022-12-19T13:11:44.927Z,36.90
2022-12-19T13:14:34.933Z,32.13
2022-12-19T13:17:02.706Z,31.95
2022-12-19T13:19:52.632Z,36.85
2022-12-19T13:22:37.750Z,28.20
2022-12-19T13:25:27.034Z,36.83
2022-12-19T13:27:58.955Z,36.20
2022-12-19T13:30:28.458Z,37.60
2022-12-19T13:32:55.272Z,33.65
2022-12-19T13:36:19.102Z,35.33
2022-12-19T13:39:55.429Z,31.80
2022-12-19T13:41:24.960Z,36.72
2022-12-19T13:43:58.590Z,37.47
2022-12-19T13:46:36.415Z,33.00
2022-12-19T13:49:08.331Z,39.17
2022-12-19T13:51:55.798Z,35.28
2022-12-19T13:54:26.911Z,43.45
2022-12-19T13:56:55.092Z,48.72
2022-12-19T13:59:24.597Z,34.50
2022-12-19T14:01:53.636Z,38.78
2022-12-19T14:04:33.068Z,42.92
2022-12-19T14:07:05.353Z,32.65
2022-12-19T14:11:27.879Z,35.53
2022-12-19T14:13:55.326Z,37.10
2022-12-19T14:15:52.471Z,34.20
2022-12-19T14:18:44.914Z,35.45
2022-12-19T14:22:04.312Z,37.75
2022-12-19T14:24:20.982Z,30.63
2022-12-19T14:28:17.164Z,33.88
2022-12-19T14:30:30.029Z,33.78
2022-12-19T14:33:47.423Z,32.05
2022-12-19T14:36:07.174Z,35.58
2022-12-19T14:39:19.735Z,35.55
2022-12-19T14:42:07.701Z,33.28
2022-12-19T14:51:43.042Z,36.58
2022-12-19T14:54:15.867Z,35.80
2022-12-19T14:54:21.443Z,40.53
2022-12-19T14:54:30.495Z,38.70
2022-12-19T14:59:03.348Z,48.95
2022-12-19T15:01:33.236Z,40.53
2022-12-19T15:04:50.875Z,48.20
2022-12-19T15:07:06.901Z,42.55
2022-12-19T15:11:07.925Z,38.42
2022-12-19T15:14:51.618Z,42.88
2022-12-19T15:16:30.530Z,41.75
2022-12-19T15:18:59.036Z,44.35
2022-12-19T15:21:26.421Z,47.08
2022-12-19T15:23:53.527Z,47.70
2022-12-19T15:26:28.715Z,42.35
2022-12-19T15:28:57.067Z,51.05
2022-12-19T15:31:35.013Z,35.00
2022-12-19T15:37:16.745Z,44.50
2022-12-19T15:39:44.749Z,48.25
2022-12-19T15:42:22.039Z,51.00
2022-12-19T15:44:51.180Z,41.17
2022-12-19T15:47:44.722Z,42.65
2022-12-19T15:50:24.238Z,42.88
2022-12-19T15:52:57.454Z,46.78
2022-12-19T15:55:27.607Z,48.95
2022-12-19T15:58:03.781Z,48.97
2022-12-19T16:00:34.974Z,43.80
2022-12-19T16:05:49.415Z,53.55
2022-12-19T16:08:19.145Z,52.25
2022-12-19T16:11:01.091Z,60.92
2022-12-19T16:13:32.309Z,52.55
2022-12-19T16:15:59.487Z,52.40
2022-12-19T16:18:26.366Z,68.60
2022-12-19T16:20:53.858Z,51.83
2022-12-19T16:23:22.402Z,55.58
2022-12-19T16:25:51.198Z,51.97
2022-12-19T16:28:29.779Z,50.15
2022-12-19T16:30:58.669Z,53.25
2022-12-19T16:33:28.826Z,50.80
2022-12-19T16:36:05.197Z,52.75
2022-12-19T16:38:33.489Z,53.28
2022-12-19T16:41:01.762Z,50.17
2022-12-19T16:43:31.979Z,47.38
2022-12-19T16:46:01.404Z,49.08
2022-12-19T16:48:31.990Z,46.95
2022-12-19T16:50:59.353Z,53.97
2022-12-19T16:53:26.453Z,45.70
2022-12-19T16:55:56.100Z,49.03
2022-12-19T16:58:25.431Z,45.95
2022-12-19T17:00:55.002Z,40.83
2022-12-19T17:03:27.729Z,45.70
2022-12-19T17:05:55.025Z,44.83
2022-12-19T17:08:21.909Z,42.35
2022-12-19T17:10:49.046Z,52.80
2022-12-19T17:13:17.992Z,40.88
2022-12-19T17:15:48.621Z,41.60
2022-12-19T17:18:29.720Z,36.40
2022-12-19T17:20:56.848Z,42.40
2022-12-19T17:23:24.807Z,46.65
2022-12-19T17:25:52.351Z,43.95
2022-12-19T17:28:19.153Z,44.88
2022-12-19T17:30:57.441Z,43.92
2022-12-19T17:33:29.025Z,40.85
2022-12-19T17:35:55.862Z,47.55
2022-12-19T17:38:22.683Z,43.45
2022-12-19T17:40:49.576Z,51.08
2022-12-19T17:43:16.408Z,51.30
2022-12-19T17:45:43.356Z,43.85
2022-12-19T17:48:26.405Z,52.83
2022-12-19T17:50:54.215Z,50.95
2022-12-19T17:53:21.674Z,41.75
2022-12-19T17:55:48.569Z,48.20
2022-12-19T17:58:15.474Z,47.15
2022-12-19T18:00:43.539Z,47.08
2022-12-19T18:03:16.507Z,45.20
2022-12-19T18:05:43.967Z,49.55
2022-12-19T18:08:30.674Z,48.67
2022-12-19T18:11:00.451Z,49.13
2022-12-19T18:13:29.178Z,49.80
2022-12-19T18:15:59.276Z,46.50
2022-12-19T18:18:31.637Z,47.17
2022-12-19T18:21:00.278Z,41.22
2022-12-19T18:23:27.439Z,38.33
2022-12-19T18:25:59.433Z,42.08
2022-12-19T18:28:28.716Z,42.00
2022-12-19T18:31:28.110Z,45.42
2022-12-19T18:34:02.091Z,38.72
2022-12-19T18:36:43.012Z,34.50
2022-12-19T18:39:24.515Z,30.38
2022-12-19T18:41:52.605Z,30.40
2022-12-19T18:44:19.761Z,30.02
2022-12-19T18:46:48.623Z,34.00
2022-12-19T18:49:16.916Z,33.08
2022-12-19T18:51:47.355Z,35.45
2022-12-19T18:54:17.154Z,27.20
2022-12-19T18:56:45.508Z,28.98
2022-12-19T18:59:12.342Z,27.80
2022-12-19T19:01:46.263Z,22.55
2022-12-19T19:04:16.680Z,25.33
2022-12-19T19:06:50.349Z,26.10
2022-12-19T19:09:19.955Z,24.58
2022-12-19T19:11:46.817Z,21.67
2022-12-19T19:14:13.771Z,19.48
2022-12-19T19:16:40.904Z,22.10
2022-12-19T19:19:11.027Z,20.20
2022-12-19T19:21:39.056Z,20.27
2022-12-19T19:24:26.173Z,23.10
2022-12-19T19:26:53.115Z,30.52
2022-12-19T19:29:20.102Z,28.20
2022-12-19T19:31:49.999Z,21.50
2022-12-19T19:34:27.487Z,24.63
2022-12-19T19:36:59.381Z,28.35
2022-12-19T19:39:27.856Z,22.08
2022-12-19T19:41:56.349Z,30.85
2022-12-19T19:44:23.321Z,28.33
2022-12-19T19:46:50.421Z,29.23
2022-12-19T19:49:17.411Z,22.67
2022-12-19T19:51:44.237Z,27.80
2022-12-19T19:54:11.066Z,23.60
2022-12-19T19:56:38.154Z,28.30
2022-12-19T19:59:05.162Z,25.60
2022-12-19T20:01:32.557Z,21.58
2022-12-19T20:03:59.535Z,22.67
2022-12-19T20:06:26.489Z,25.50
2022-12-19T20:08:53.370Z,25.83
2022-12-19T20:11:20.806Z,22.30
2022-12-19T20:13:47.652Z,26.70
2022-12-19T20:16:18.012Z,25.55
2022-12-19T20:18:49.998Z,28.75
2022-12-19T20:21:18.337Z,25.63
2022-12-19T20:23:45.247Z,29.23
2022-12-19T20:26:13.435Z,22.80
2022-12-19T20:28:47.933Z,23.65
2022-12-19T20:31:17.002Z,28.23
2022-12-19T20:33:43.890Z,20.92
2022-12-19T20:36:12.426Z,21.40
2022-12-19T20:38:40.132Z,25.40
2022-12-19T20:41:07.290Z,27.77
2022-12-19T20:43:34.540Z,25.02
2022-12-19T20:46:13.365Z,22.20
2022-12-19T20:48:40.879Z,27.55
2022-12-19T20:51:09.085Z,24.05
2022-12-19T20:53:38.002Z,24.42
2022-12-19T20:56:06.525Z,22.08
2022-12-19T20:58:35.241Z,22.67
2022-12-19T21:01:10.716Z,26.85
2022-12-19T21:03:38.081Z,25.15
2022-12-19T21:06:06.301Z,26.85
2022-12-19T21:08:34.223Z,21.83
2022-12-19T21:11:01.656Z,21.50
2022-12-19T21:13:28.831Z,24.05
2022-12-19T21:15:58.764Z,21.83
2022-12-19T21:18:27.013Z,19.25
2022-12-19T21:20:53.981Z,21.92
2022-12-19T21:23:20.861Z,23.65
2022-12-19T21:25:47.782Z,23.23
2022-12-19T21:28:15.364Z,30.85
2022-12-19T21:30:42.707Z,31.55
2022-12-19T21:33:09.906Z,33.05
2022-12-19T21:35:38.011Z,32.97
2022-12-19T21:38:04.900Z,38.38
2022-12-19T21:40:31.713Z,35.47
2022-12-19T21:42:58.523Z,30.27
2022-12-19T21:45:25.364Z,30.35
2022-12-19T21:47:52.189Z,37.33
2022-12-19T21:50:19.110Z,32.28
2022-12-19T21:52:46.318Z,28.35
2022-12-19T21:55:14.260Z,30.58
2022-12-19T21:57:41.941Z,30.45
2022-12-19T22:00:11.174Z,30.55
2022-12-19T22:02:38.285Z,28.00
2022-12-19T22:05:06.515Z,25.50
2022-12-19T22:07:34.558Z,28.45
2022-12-19T22:10:01.509Z,26.42
2022-12-19T22:12:28.359Z,24.38
2022-12-19T22:14:55.194Z,25.77
2022-12-19T22:17:22.046Z,21.00
2022-12-19T22:19:49.052Z,21.13
2022-12-19T22:22:15.867Z,23.58
2022-12-19T22:24:42.735Z,22.00
2022-12-19T22:27:09.568Z,25.85
2022-12-19T22:29:36.852Z,20.92
2022-12-19T22:32:04.765Z,21.95
2022-12-19T22:34:31.671Z,26.58
2022-12-19T22:36:58.581Z,25.13
2022-12-19T22:39:25.687Z,25.25
2022-12-19T22:41:52.492Z,24.60
2022-12-19T22:44:23.091Z,28.45
2022-12-19T22:46:50.859Z,23.55
2022-12-19T22:49:18.352Z,23.65
2022-12-19T22:51:45.553Z,21.33
2022-12-19T22:54:13.637Z,23.42
2022-12-19T22:56:40.980Z,21.85
2022-12-19T22:59:09.096Z,22.65
2022-12-19T23:01:38.762Z,21.75
2022-12-19T23:04:07.663Z,22.33
2022-12-19T23:06:37.008Z,22.00
2022-12-19T23:09:08.620Z,21.17
2022-12-19T23:11:38.426Z,22.95
2022-12-19T23:14:07.790Z,22.58
2022-12-19T23:16:34.789Z,19.02
2022-12-19T23:19:01.757Z,24.08
2022-12-19T23:21:28.861Z,20.77
2022-12-19T23:23:56.264Z,22.95
2022-12-19T23:26:32.213Z,19.48
2022-12-19T23:29:01.764Z,26.35
2022-12-19T23:31:29.779Z,19.05
2022-12-19T23:33:57.830Z,16.95
2022-12-19T23:37:00.389Z,21.42
2022-12-19T23:39:12.727Z,16.13
2022-12-19T23:41:40.332Z,20.08
2022-12-19T23:44:08.663Z,19.33
2022-12-19T23:46:35.848Z,24.42
2022-12-19T23:49:03.227Z,18.77
2022-12-19T23:51:30.261Z,25.40
2022-12-19T23:53:57.333Z,23.05
2022-12-19T23:56:29.783Z,25.33
2022-12-19T23:58:57.755Z,23.80
